Weather History for KFSO - November, 2012

Change the Weather History Date:

Sunday, November 4, 2012

  Actual Average (KPBG) Record (KPBG)
Temperature  
Mean Temperature 35 °F 41 °F  
Max Temperature 37 °F 51 °F 72 °F (1990)
Min Temperature 34 °F 31 °F 22 °F (1986)
Degree Days  
Heating Degree Days 30 24  
Month to date heating degree days 94  
Since 1 July heating degree days 877  
Cooling Degree Days 0 0  
Month to date cooling degree days 0  
Year to date cooling degree days 346  
Moisture  
Dew Point 28 °F    
Average Humidity 73    
Maximum Humidity 86    
Minimum Humidity 65    
Precipitation  
Precipitation 0.00 in - 1.82 in (1982)
Month to date precipitation  
Year to date precipitation  
Sea Level Pressure  
Sea Level Pressure 29.96 in    
Wind  
Wind Speed 6 mph (WNW)    
Max Wind Speed 9 mph    
Max Gust Speed 18 mph    
Visibility 10 miles    
Events      
T = Trace of Precipitation, MM = Missing Value Source: NWS Daily Summary

Daily Weather History Graph

Daily Weather History Graph

Search for Another Location

Airport or City:

Trip Planner

Search our weather history database for the weather conditions in past years. The results will help you decide how hot, cold, wet, or windy it might be!

Date:

Astronomy

Nov. 04, 2012 Rise Set
Actual Time 6:35 AM EST 4:35 PM EST
Civil Twilight 6:04 AM EST 5:06 PM EST
Nautical Twilight 5:29 AM EST 5:41 PM EST
Astronomical Twilight 4:55 AM EST 6:15 PM EST
Moon 9:09 PM EST (11/4) 11:20 AM EST (11/4)
Length of Visible Light 11h 02m
Length of Day
10h 00m
Waning Gibbous, 72% of the Moon is Illuminated
Nov 4
Waning Gibbous
Nov 6
Last Quarter
Nov 13
New
Nov 20
First Quarter
Nov 28
Full

Hourly Weather History & Observations

Time (EST) Temp. Windchill Dew Point Humidity Pressure Visibility Wind Dir Wind Speed Gust Speed Precip Events Conditions
12:15 AM 36.9 °F 31.4 °F 33.1 °F 86% 29.88 in 10.0 mi WNW 6.9 mph - N/A   Overcast
12:35 AM 36.9 °F 33.1 °F 32.4 °F 84% 29.89 in 10.0 mi West 4.6 mph - N/A   Overcast
12:55 AM 36.9 °F 31.4 °F 32.0 °F 83% 29.89 in 10.0 mi West 6.9 mph - N/A   Overcast
1:15 AM 36.9 °F 32.2 °F 31.8 °F 82% 29.90 in 10.0 mi West 5.8 mph - N/A   Overcast
1:35 AM 36.9 °F 30.7 °F 31.5 °F 81% 29.90 in 10.0 mi WNW 8.1 mph - N/A   Overcast
1:55 AM 36.9 °F 31.4 °F 31.1 °F 80% 29.90 in 10.0 mi West 6.9 mph - N/A   Overcast
1:15 AM 36.9 °F 33.1 °F 31.1 °F 80% 29.90 in 10.0 mi West 4.6 mph - N/A   Overcast
1:35 AM 36.9 °F 30.7 °F 30.7 °F 79% 29.90 in 10.0 mi WNW 8.1 mph - N/A   Overcast
1:55 AM 36.9 °F 31.4 °F 30.4 °F 77% 29.91 in 10.0 mi WNW 6.9 mph 18.4 mph N/A   Overcast
2:15 AM 36.9 °F 32.2 °F 30.4 °F 77% 29.91 in 10.0 mi West 5.8 mph - N/A   Overcast
2:35 AM 36.9 °F 32.2 °F 30.2 °F 77% 29.90 in 10.0 mi WNW 5.8 mph - N/A   Overcast
3:15 AM 36.7 °F 32.0 °F 30.0 °F 77% 29.91 in 10.0 mi West 5.8 mph - N/A   Overcast
3:35 AM 36.0 °F 29.0 °F 29.3 °F 77% 29.91 in 10.0 mi West 9.2 mph - N/A   Overcast
3:55 AM 35.1 °F 31.0 °F 28.4 °F 77% 29.91 in 10.0 mi WNW 4.6 mph - N/A   Overcast
4:15 AM 34.7 °F 28.1 °F 28.0 °F 77% 29.91 in 10.0 mi WNW 8.1 mph - N/A   Overcast
4:35 AM 34.3 °F 30.2 °F 28.0 °F 78% 29.92 in 10.0 mi West 4.6 mph - N/A   Overcast
4:55 AM 34.3 °F 29.2 °F 28.0 °F 78% 29.92 in 10.0 mi WNW 5.8 mph - N/A   Overcast
5:15 AM 34.3 °F 28.4 °F 28.0 °F 78% 29.93 in 10.0 mi West 6.9 mph - N/A   Overcast
5:35 AM 34.3 °F 31.4 °F 28.0 °F 78% 29.93 in 10.0 mi West 3.5 mph - N/A   Overcast
5:55 AM 34.3 °F 31.4 °F 27.9 °F 77% 29.93 in 10.0 mi West 3.5 mph - N/A   Overcast
6:15 AM 34.3 °F 27.7 °F 27.5 °F 76% 29.94 in 10.0 mi West 8.1 mph - N/A   Overcast
6:35 AM 34.3 °F 31.4 °F 27.5 °F 76% 29.94 in 10.0 mi West 3.5 mph - N/A   Overcast
6:55 AM 34.3 °F 31.4 °F 27.5 °F 76% 29.95 in 10.0 mi WNW 3.5 mph - N/A   Overcast
7:15 AM 34.3 °F 29.2 °F 27.9 °F 77% 29.95 in 10.0 mi WNW 5.8 mph - N/A   Overcast
7:35 AM 34.3 °F 28.4 °F 28.0 °F 78% 29.96 in 10.0 mi West 6.9 mph - N/A   Overcast
7:55 AM 34.3 °F 27.7 °F 28.0 °F 78% 29.97 in 10.0 mi WNW 8.1 mph - N/A   Overcast
8:15 AM 34.7 °F 29.6 °F 28.0 °F 77% 29.97 in 10.0 mi West 5.8 mph - N/A   Overcast
8:35 AM 34.7 °F 29.6 °F 28.2 °F 77% 29.97 in 10.0 mi West 5.8 mph - N/A   Overcast
8:55 AM 34.7 °F 28.1 °F 27.9 °F 76% 29.97 in 10.0 mi West 8.1 mph - N/A   Overcast
9:15 AM 34.7 °F 27.5 °F 27.9 °F 76% 29.97 in 10.0 mi WNW 9.2 mph - N/A   Overcast
9:35 AM 35.4 °F 29.7 °F 29.5 °F 79% 29.97 in 10.0 mi WNW 6.9 mph - N/A   Overcast
9:55 AM 36.7 °F 31.2 °F 30.6 °F 78% 29.97 in 10.0 mi West 6.9 mph - N/A   Overcast
10:15 AM 36.7 °F 31.2 °F 30.6 °F 78% 29.97 in 10.0 mi NW 6.9 mph - N/A   Overcast
10:35 AM 36.9 °F 31.4 °F 30.6 °F 78% 29.96 in 10.0 mi WNW 6.9 mph - N/A   Overcast
10:55 AM 36.9 °F 31.4 °F 30.0 °F 76% 29.96 in 10.0 mi NNW 6.9 mph - N/A   Overcast
11:15 AM 36.9 °F 31.4 °F 29.3 °F 74% 29.96 in 10.0 mi WNW 6.9 mph - N/A   Overcast
11:35 AM 36.9 °F 32.2 °F 29.7 °F 75% 29.96 in 10.0 mi WNW 5.8 mph - N/A   Overcast
11:55 AM 36.9 °F 32.2 °F 29.3 °F 74% 29.96 in 10.0 mi NW 5.8 mph - N/A   Overcast
12:15 PM 36.9 °F 33.1 °F 29.3 °F 74% 29.96 in 10.0 mi WNW 4.6 mph - N/A   Overcast
12:35 PM 36.9 °F 31.4 °F 27.9 °F 70% 29.96 in 10.0 mi WNW 6.9 mph - N/A   Overcast
1:15 PM 36.9 °F 32.2 °F 27.3 °F 68% 29.96 in 10.0 mi WNW 5.8 mph - N/A   Overcast
1:35 PM 36.9 °F 31.4 °F 27.1 °F 68% 29.96 in 10.0 mi West 6.9 mph - N/A   Overcast
1:55 PM 36.9 °F 34.3 °F 27.3 °F 68% 29.96 in 10.0 mi WNW 3.5 mph - N/A   Overcast
2:15 PM 36.9 °F 30.7 °F 26.8 °F 67% 29.96 in 10.0 mi WNW 8.1 mph - N/A   Overcast
2:35 PM 36.7 °F 32.0 °F 27.1 °F 68% 29.96 in 10.0 mi WNW 5.8 mph - N/A   Overcast
2:55 PM 35.6 °F 28.6 °F 26.4 °F 69% 29.97 in 10.0 mi WNW 9.2 mph - N/A   Overcast
3:15 PM 34.7 °F 28.1 °F 25.7 °F 70% 29.97 in 10.0 mi West 8.1 mph - N/A   Overcast
3:35 PM 34.3 °F 31.4 °F 25.7 °F 71% 29.97 in 10.0 mi WNW 3.5 mph - N/A   Overcast
3:55 PM 34.3 °F 30.2 °F 25.3 °F 70% 29.98 in 10.0 mi West 4.6 mph - N/A   Overcast
4:15 PM 34.3 °F 30.2 °F 24.8 °F 68% 29.98 in 10.0 mi West 4.6 mph - N/A   Overcast
4:35 PM 34.3 °F 30.2 °F 24.3 °F 67% 29.99 in 10.0 mi West 4.6 mph - N/A   Overcast
5:15 PM 34.3 °F 29.2 °F 23.7 °F 65% 29.99 in 10.0 mi WNW 5.8 mph - N/A   Overcast
5:35 PM 34.3 °F 31.4 °F 23.7 °F 65% 30.00 in 10.0 mi West 3.5 mph - N/A   Overcast
5:55 PM 34.3 °F 31.4 °F 23.7 °F 65% 30.00 in 10.0 mi West 3.5 mph - N/A   Overcast
6:15 PM 34.3 °F 30.2 °F 24.1 °F 66% 30.00 in 10.0 mi West 4.6 mph - N/A   Overcast
6:35 PM 34.3 °F 29.2 °F 24.4 °F 67% 30.00 in 10.0 mi West 5.8 mph - N/A   Overcast
6:55 PM 34.3 °F 30.2 °F 23.9 °F 66% 30.00 in 10.0 mi West 4.6 mph - N/A   Overcast
7:15 PM 34.3 °F 31.4 °F 23.7 °F 65% 30.00 in 10.0 mi WNW 3.5 mph - N/A   Overcast
7:35 PM 34.3 °F 30.2 °F 23.5 °F 65% 30.00 in 10.0 mi West 4.6 mph - N/A   Overcast
7:55 PM 34.3 °F 31.4 °F 23.5 °F 65% 30.00 in 10.0 mi WNW 3.5 mph - N/A   Overcast
8:15 PM 34.3 °F 31.4 °F 24.3 °F 67% 30.01 in 10.0 mi NW 3.5 mph - N/A   Overcast
8:35 PM 34.3 °F 30.2 °F 24.6 °F 68% 30.01 in 10.0 mi WNW 4.6 mph - N/A   Overcast
8:55 PM 34.3 °F 31.4 °F 25.2 °F 69% 30.01 in 10.0 mi NW 3.5 mph - N/A   Overcast
9:15 PM 34.3 °F 31.4 °F 25.7 °F 71% 30.01 in 10.0 mi WNW 3.5 mph - N/A   Overcast
9:35 PM 34.3 °F 29.2 °F 26.1 °F 72% 30.01 in 10.0 mi NW 5.8 mph - N/A   Overcast
9:55 PM 34.3 °F 30.2 °F 23.5 °F 65% 30.01 in 10.0 mi NNW 4.6 mph - N/A   Overcast
10:15 PM 34.3 °F - 24.3 °F 67% 30.01 in 10.0 mi Calm Calm - N/A   Overcast
10:35 PM 34.3 °F - 25.0 °F 69% 30.01 in 10.0 mi Calm Calm - N/A   Overcast
10:55 PM 34.3 °F - 24.3 °F 67% 30.01 in 10.0 mi Calm Calm - N/A   Overcast